createdAt,value
2022-11-05T00:06:43.228Z,6.60
2022-11-05T00:13:44.204Z,7.10
2022-11-05T00:20:26.526Z,7.32
2022-11-05T00:27:09.449Z,7.28
2022-11-05T00:33:51.720Z,6.78
2022-11-05T00:40:34.432Z,6.45
2022-11-05T00:47:35.508Z,5.63
2022-11-05T00:54:17.830Z,7.03
2022-11-05T01:01:01.258Z,5.68
2022-11-05T01:07:43.617Z,4.50
2022-11-05T01:14:25.938Z,5.47
2022-11-05T01:21:13.525Z,4.95
2022-11-05T01:27:55.830Z,3.88
2022-11-05T01:34:38.165Z,4.05
2022-11-05T01:41:20.474Z,3.10
2022-11-05T01:48:08.957Z,3.65
2022-11-05T01:54:51.370Z,2.85
2022-11-05T02:01:34.084Z,3.00
2022-11-05T02:08:27.290Z,3.05
2022-11-05T02:15:19.262Z,2.90
2022-11-05T02:22:10.720Z,2.65
2022-11-05T02:29:11.593Z,2.80
2022-11-05T02:36:08.931Z,2.70
2022-11-05T02:43:14.967Z,3.35
2022-11-05T02:49:57.207Z,2.50
2022-11-05T02:56:44.703Z,3.25
2022-11-05T03:03:39.116Z,2.58
2022-11-05T03:10:38.488Z,3.17
2022-11-05T03:17:57.755Z,3.50
2022-11-05T03:24:46.177Z,3.10
2022-11-05T03:31:30.113Z,3.25
2022-11-05T03:38:18.879Z,3.40
2022-11-05T03:45:08.344Z,3.20
2022-11-05T03:52:01.512Z,3.35
2022-11-05T03:58:50.630Z,3.60
2022-11-05T04:05:36.012Z,3.90
2022-11-05T04:12:36.768Z,3.42
2022-11-05T04:19:39.038Z,3.28
2022-11-05T04:26:23.939Z,3.40
2022-11-05T04:33:08.907Z,4.13
2022-11-05T04:39:51.466Z,4.78
2022-11-05T04:46:33.768Z,5.03
2022-11-05T04:53:16.052Z,5.35
2022-11-05T04:59:58.378Z,5.07
2022-11-05T05:06:40.856Z,6.00
2022-11-05T05:13:23.152Z,6.18
2022-11-05T05:20:24.169Z,6.78
2022-11-05T05:27:06.466Z,9.10
2022-11-05T05:33:48.765Z,9.27
2022-11-05T05:40:31.276Z,9.77
2022-11-05T05:47:14.208Z,11.30
2022-11-05T05:53:56.533Z,10.57
2022-11-05T06:00:38.836Z,10.73
2022-11-05T06:07:21.314Z,11.48
2022-11-05T06:14:03.702Z,12.85
2022-11-05T06:20:46.035Z,12.43
2022-11-05T06:27:31.488Z,13.80
2022-11-05T06:34:13.777Z,13.60
2022-11-05T06:40:59.332Z,15.18
2022-11-05T06:47:41.622Z,14.85
2022-11-05T06:54:24.104Z,15.25
2022-11-05T07:01:09.261Z,15.60
2022-11-05T07:07:51.718Z,16.27
2022-11-05T07:14:34.022Z,17.42
2022-11-05T07:21:16.462Z,16.05
2022-11-05T07:27:59.325Z,15.90
2022-11-05T07:34:41.639Z,15.43
2022-11-05T07:41:24.006Z,13.85
2022-11-05T07:48:06.634Z,14.02
2022-11-05T07:54:48.976Z,15.57
2022-11-05T08:01:32.508Z,14.48
2022-11-05T08:08:17.616Z,15.98
2022-11-05T08:14:59.929Z,14.82
2022-11-05T08:21:42.254Z,13.35
2022-11-05T08:28:26.170Z,10.30
2022-11-05T08:35:08.674Z,8.80
2022-11-05T08:41:51.076Z,7.25
2022-11-05T08:48:33.408Z,6.97
2022-11-05T08:55:18.874Z,6.53
2022-11-05T09:02:01.613Z,5.20
2022-11-05T09:08:43.975Z,5.35
2022-11-05T09:15:26.318Z,5.32
2022-11-05T09:22:08.702Z,5.55
2022-11-05T09:28:51.191Z,5.80
2022-11-05T09:35:33.495Z,6.28
2022-11-05T09:42:20.062Z,6.60
2022-11-05T09:49:06.721Z,6.85
2022-11-05T09:55:54.196Z,8.00
2022-11-05T10:02:56.341Z,7.80
2022-11-05T10:10:08.293Z,8.43
2022-11-05T10:17:00.139Z,8.25
2022-11-05T10:23:43.435Z,8.75
2022-11-05T10:30:31.555Z,9.27
2022-11-05T10:37:14.125Z,9.18
2022-11-05T10:44:19.213Z,10.10
2022-11-05T10:51:01.900Z,8.27
2022-11-05T10:57:44.296Z,8.20
2022-11-05T11:04:31.253Z,8.55
2022-11-05T11:11:32.558Z,9.60
2022-11-05T11:18:23.289Z,9.57
2022-11-05T11:25:26.069Z,8.38
2022-11-05T11:32:16.945Z,9.30
2022-11-05T11:39:02.274Z,8.23
2022-11-05T11:45:51.620Z,7.57
2022-11-05T11:52:36.423Z,7.15
2022-11-05T11:59:53.932Z,6.60
2022-11-05T12:06:39.246Z,6.90
2022-11-05T12:13:49.063Z,7.18
2022-11-05T12:21:06.901Z,6.93
2022-11-05T12:28:00.878Z,6.68
2022-11-05T12:35:15.275Z,7.65
2022-11-05T12:42:05.478Z,7.25
2022-11-05T12:49:04.721Z,6.60
2022-11-05T12:55:49.461Z,5.82
2022-11-05T13:02:47.815Z,4.93
2022-11-05T13:09:37.170Z,4.90
2022-11-05T13:16:29.685Z,5.22
2022-11-05T13:23:31.011Z,5.10
2022-11-05T13:30:24.168Z,5.47
2022-11-05T13:37:37.962Z,4.78
2022-11-05T13:44:45.027Z,5.28
2022-11-05T13:51:47.202Z,4.82
2022-11-05T13:58:42.402Z,3.97
2022-11-05T14:05:38.119Z,4.75
2022-11-05T14:12:29.417Z,4.47
2022-11-05T14:19:18.056Z,4.65
2022-11-05T14:26:00.348Z,4.80
2022-11-05T14:32:45.996Z,5.60
2022-11-05T14:39:32.455Z,6.13
2022-11-05T14:46:15.874Z,4.80
2022-11-05T14:53:04.567Z,5.43
2022-11-05T15:00:01.102Z,5.13
2022-11-05T15:07:06.910Z,4.72
2022-11-05T15:13:55.080Z,5.35
2022-11-05T15:20:40.378Z,5.32
2022-11-05T15:27:48.580Z,6.30
2022-11-05T15:34:33.281Z,5.55
2022-11-05T15:41:19.949Z,6.03
2022-11-05T15:48:12.386Z,6.03
2022-11-05T15:55:17.105Z,6.45
2022-11-05T16:02:01.831Z,6.28
2022-11-05T16:08:50.702Z,5.80
2022-11-05T16:15:34.277Z,5.30
2022-11-05T16:22:25.138Z,6.07
2022-11-05T16:29:26.160Z,5.57
2022-11-05T16:36:09.270Z,5.25
2022-11-05T16:42:53.180Z,5.28
2022-11-05T16:49:35.518Z,5.40
2022-11-05T16:56:22.716Z,5.30
2022-11-05T17:03:05.075Z,6.05
2022-11-05T17:09:47.442Z,5.55
2022-11-05T17:16:33.956Z,5.88
2022-11-05T17:23:21.919Z,6.22
2022-11-05T17:30:04.867Z,9.18
2022-11-05T17:36:47.166Z,6.95
2022-11-05T17:43:29.472Z,8.82
2022-11-05T17:50:14.657Z,7.03
2022-11-05T17:56:56.943Z,7.28
2022-11-05T18:03:39.297Z,6.88
2022-11-05T18:10:22.717Z,8.05
2022-11-05T18:17:05.064Z,7.78
2022-11-05T18:23:47.578Z,8.88
2022-11-05T18:30:30.072Z,9.70
2022-11-05T18:37:12.435Z,9.10
2022-11-05T18:44:00.007Z,8.48
2022-11-05T18:50:42.362Z,8.50
2022-11-05T18:57:25.101Z,9.20
2022-11-05T19:04:07.655Z,8.40
2022-11-05T19:10:57.092Z,9.85
2022-11-05T19:17:39.400Z,10.48
2022-11-05T19:24:21.717Z,11.00
2022-11-05T19:31:04.307Z,12.32
2022-11-05T19:37:46.864Z,12.73
2022-11-05T19:44:29.219Z,14.13
2022-11-05T19:51:15.422Z,11.82
2022-11-05T19:57:57.732Z,11.90
2022-11-05T20:04:40.066Z,13.73
2022-11-05T20:11:22.492Z,13.50
2022-11-05T20:18:12.260Z,12.70
2022-11-05T20:25:06.965Z,11.40
2022-11-05T20:31:50.387Z,12.38
2022-11-05T20:38:35.258Z,14.13
2022-11-05T20:45:17.597Z,13.43
2022-11-05T20:52:00.127Z,14.18
2022-11-05T20:58:42.457Z,17.50
2022-11-05T21:05:24.746Z,16.90
2022-11-05T21:12:24.284Z,14.95
2022-11-05T21:19:07.170Z,14.98
2022-11-05T21:25:49.581Z,17.00
2022-11-05T21:32:31.917Z,18.98
2022-11-05T21:39:14.232Z,15.43
2022-11-05T21:46:01.371Z,14.73
2022-11-05T21:53:02.412Z,14.90
2022-11-05T21:59:55.193Z,14.68
2022-11-05T22:06:37.536Z,14.68
2022-11-05T22:13:20.079Z,14.80
2022-11-05T22:20:03.053Z,14.55
2022-11-05T22:26:46.106Z,15.85
2022-11-05T22:33:28.516Z,17.20
2022-11-05T22:40:11.068Z,16.85
2022-11-05T22:46:53.897Z,18.30
2022-11-05T22:53:37.173Z,18.13
2022-11-05T23:00:19.562Z,19.75
2022-11-05T23:07:26.156Z,17.38
2022-11-05T23:14:12.160Z,18.30
2022-11-05T23:21:13.019Z,17.75
2022-11-05T23:27:55.633Z,17.42
2022-11-05T23:34:38.525Z,16.23
2022-11-05T23:41:39.643Z,16.50
2022-11-05T23:48:34.497Z,17.83
2022-11-05T23:55:17.069Z,17.40
